sensor_id;sensor_type;location;lat;lon;timestamp;pressure;altitude;pressure_sealevel;temperature;humidity
80174;BME280;69497;41.708;44.804;2023-04-24T00:01:23;96680.50;;;15.32;77.42
80174;BME280;69497;41.708;44.804;2023-04-24T00:03:49;96680.03;;;15.35;77.45
80174;BME280;69497;41.708;44.804;2023-04-24T00:06:16;96679.91;;;15.30;77.65
80174;BME280;69497;41.708;44.804;2023-04-24T00:08:43;96679.31;;;15.28;77.86
80174;BME280;69497;41.708;44.804;2023-04-24T00:11:09;96667.44;;;15.22;78.07
80174;BME280;69497;41.708;44.804;2023-04-24T00:13:35;96669.94;;;15.24;78.23
80174;BME280;69497;41.708;44.804;2023-04-24T00:16:01;96671.72;;;15.18;79.50
80174;BME280;69497;41.708;44.804;2023-04-24T00:18:27;96680.09;;;15.17;78.90
80174;BME280;69497;41.708;44.804;2023-04-24T00:20:53;96687.69;;;15.15;79.22
80174;BME280;69497;41.708;44.804;2023-04-24T00:23:19;96680.31;;;15.04;79.50
80174;BME280;69497;41.708;44.804;2023-04-24T00:25:45;96695.81;;;15.03;79.69
80174;BME280;69497;41.708;44.804;2023-04-24T00:28:11;96700.19;;;15.04;80.30
80174;BME280;69497;41.708;44.804;2023-04-24T00:30:37;96702.31;;;15.02;80.50
80174;BME280;69497;41.708;44.804;2023-04-24T00:33:03;96701.47;;;15.02;80.25
80174;BME280;69497;41.708;44.804;2023-04-24T00:35:29;96704.69;;;14.99;80.59
80174;BME280;69497;41.708;44.804;2023-04-24T00:37:55;96707.41;;;14.99;80.76
80174;BME280;69497;41.708;44.804;2023-04-24T00:40:21;96725.38;;;15.00;81.26
80174;BME280;69497;41.708;44.804;2023-04-24T00:42:47;96721.47;;;14.96;81.60
80174;BME280;69497;41.708;44.804;2023-04-24T00:45:13;96725.47;;;14.93;81.34
80174;BME280;69497;41.708;44.804;2023-04-24T00:47:40;96712.56;;;14.89;81.35
80174;BME280;69497;41.708;44.804;2023-04-24T00:50:08;96718.00;;;14.89;81.37
80174;BME280;69497;41.708;44.804;2023-04-24T00:52:34;96713.94;;;14.80;81.76
80174;BME280;69497;41.708;44.804;2023-04-24T00:55:00;96704.78;;;14.74;82.65
80174;BME280;69497;41.708;44.804;2023-04-24T00:57:26;96690.25;;;14.69;82.17
80174;BME280;69497;41.708;44.804;2023-04-24T00:59:53;96697.69;;;14.73;82.59
80174;BME280;69497;41.708;44.804;2023-04-24T01:02:19;96680.03;;;14.64;82.38
80174;BME280;69497;41.708;44.804;2023-04-24T01:04:46;96689.41;;;14.68;82.26
80174;BME280;69497;41.708;44.804;2023-04-24T01:07:12;96674.81;;;14.63;83.18
80174;BME280;69497;41.708;44.804;2023-04-24T01:09:40;96670.31;;;14.57;83.22
80174;BME280;69497;41.708;44.804;2023-04-24T01:12:07;96683.31;;;14.55;83.02
80174;BME280;69497;41.708;44.804;2023-04-24T01:14:33;96681.47;;;14.67;82.53
80174;BME280;69497;41.708;44.804;2023-04-24T01:16:59;96683.59;;;14.65;81.61
80174;BME280;69497;41.708;44.804;2023-04-24T01:19:27;96681.91;;;14.64;82.14
80174;BME280;69497;41.708;44.804;2023-04-24T01:21:54;96709.13;;;14.64;82.13
80174;BME280;69497;41.708;44.804;2023-04-24T01:24:23;96701.19;;;14.62;81.96
80174;BME280;69497;41.708;44.804;2023-04-24T01:26:50;96688.56;;;14.68;80.42
80174;BME280;69497;41.708;44.804;2023-04-24T01:29:18;96686.53;;;14.63;80.41
80174;BME280;69497;41.708;44.804;2023-04-24T01:31:44;96682.97;;;14.63;81.04
80174;BME280;69497;41.708;44.804;2023-04-24T01:34:10;96691.75;;;14.65;81.84
80174;BME280;69497;41.708;44.804;2023-04-24T01:36:37;96697.19;;;14.65;82.55
80174;BME280;69497;41.708;44.804;2023-04-24T01:39:03;96694.94;;;14.62;81.65
80174;BME280;69497;41.708;44.804;2023-04-24T01:41:30;96699.03;;;14.53;80.81
80174;BME280;69497;41.708;44.804;2023-04-24T01:43:57;96687.16;;;14.47;80.80
80174;BME280;69497;41.708;44.804;2023-04-24T01:46:24;96695.53;;;14.46;81.81
80174;BME280;69497;41.708;44.804;2023-04-24T01:48:51;96685.78;;;14.56;81.17
80174;BME280;69497;41.708;44.804;2023-04-24T01:51:19;96690.16;;;14.57;82.25
80174;BME280;69497;41.708;44.804;2023-04-24T01:53:45;96691.16;;;14.63;82.08
80174;BME280;69497;41.708;44.804;2023-04-24T01:56:11;96691.59;;;14.60;81.96
80174;BME280;69497;41.708;44.804;2023-04-24T01:58:37;96686.03;;;14.55;81.72
80174;BME280;69497;41.708;44.804;2023-04-24T02:01:06;96690.84;;;14.53;81.72
80174;BME280;69497;41.708;44.804;2023-04-24T02:03:32;96684.50;;;14.59;81.50
80174;BME280;69497;41.708;44.804;2023-04-24T02:05:58;96685.94;;;14.61;82.01
80174;BME280;69497;41.708;44.804;2023-04-24T02:08:24;96692.44;;;14.60;79.88
80174;BME280;69497;41.708;44.804;2023-04-24T02:10:50;96692.00;;;14.45;80.60
80174;BME280;69497;41.708;44.804;2023-04-24T02:13:16;96700.16;;;14.45;81.65
80174;BME280;69497;41.708;44.804;2023-04-24T02:15:42;96704.31;;;14.48;80.82
80174;BME280;69497;41.708;44.804;2023-04-24T02:18:08;96700.16;;;14.45;80.74
80174;BME280;69497;41.708;44.804;2023-04-24T02:20:34;96703.25;;;14.49;80.97
80174;BME280;69497;41.708;44.804;2023-04-24T02:23:01;96696.91;;;14.37;81.47
80174;BME280;69497;41.708;44.804;2023-04-24T02:25:27;96701.00;;;14.46;81.67
80174;BME280;69497;41.708;44.804;2023-04-24T02:27:55;96697.44;;;14.45;81.43
80174;BME280;69497;41.708;44.804;2023-04-24T02:30:21;96708.44;;;14.50;81.82
80174;BME280;69497;41.708;44.804;2023-04-24T02:32:46;96708.03;;;14.53;81.88
80174;BME280;69497;41.708;44.804;2023-04-24T02:35:12;96729.31;;;14.56;81.97
80174;BME280;69497;41.708;44.804;2023-04-24T02:37:39;96733.09;;;14.55;82.18
80174;BME280;69497;41.708;44.804;2023-04-24T02:40:05;96742.47;;;14.59;81.73
80174;BME280;69497;41.708;44.804;2023-04-24T02:42:31;96744.56;;;14.57;82.37
80174;BME280;69497;41.708;44.804;2023-04-24T02:44:57;96746.47;;;14.57;82.87
80174;BME280;69497;41.708;44.804;2023-04-24T02:47:24;96752.88;;;14.62;82.49
80174;BME280;69497;41.708;44.804;2023-04-24T02:49:50;96767.31;;;14.63;82.55
80174;BME280;69497;41.708;44.804;2023-04-24T02:52:16;96771.69;;;14.64;82.27
80174;BME280;69497;41.708;44.804;2023-04-24T02:54:42;96770.34;;;14.55;82.95
80174;BME280;69497;41.708;44.804;2023-04-24T02:57:08;96772.69;;;14.51;82.74
80174;BME280;69497;41.708;44.804;2023-04-24T02:59:36;96777.91;;;14.53;82.11
80174;BME280;69497;41.708;44.804;2023-04-24T03:02:02;96788.72;;;14.59;82.66
80174;BME280;69497;41.708;44.804;2023-04-24T03:04:28;96789.78;;;14.58;82.98
80174;BME280;69497;41.708;44.804;2023-04-24T03:06:53;96813.56;;;14.63;83.71
80174;BME280;69497;41.708;44.804;2023-04-24T03:09:21;96817.78;;;14.59;82.92
80174;BME280;69497;41.708;44.804;2023-04-24T03:11:48;96826.72;;;14.66;83.11
80174;BME280;69497;41.708;44.804;2023-04-24T03:14:15;96837.69;;;14.59;82.90
80174;BME280;69497;41.708;44.804;2023-04-24T03:16:41;96854.63;;;14.61;83.97
80174;BME280;69497;41.708;44.804;2023-04-24T03:19:07;96829.06;;;14.62;83.98
80174;BME280;69497;41.708;44.804;2023-04-24T03:21:40;96813.72;;;14.68;84.72
80174;BME280;69497;41.708;44.804;2023-04-24T03:24:10;96810.84;;;14.63;84.69
80174;BME280;69497;41.708;44.804;2023-04-24T03:26:37;96806.19;;;14.70;84.52
80174;BME280;69497;41.708;44.804;2023-04-24T03:29:23;96799.13;;;14.62;84.30
80174;BME280;69497;41.708;44.804;2023-04-24T03:31:50;96815.84;;;14.66;83.75
80174;BME280;69497;41.708;44.804;2023-04-24T03:34:16;96808.13;;;14.63;84.04
80174;BME280;69497;41.708;44.804;2023-04-24T03:36:43;96821.28;;;14.66;83.53
80174;BME280;69497;41.708;44.804;2023-04-24T03:39:09;96811.47;;;14.65;84.14
80174;BME280;69497;41.708;44.804;2023-04-24T03:41:38;96813.81;;;14.61;84.61
80174;BME280;69497;41.708;44.804;2023-04-24T03:44:10;96811.09;;;14.61;83.98
80174;BME280;69497;41.708;44.804;2023-04-24T03:46:36;96822.59;;;14.63;84.26
80174;BME280;69497;41.708;44.804;2023-04-24T03:49:02;96809.63;;;14.59;83.77
80174;BME280;69497;41.708;44.804;2023-04-24T03:51:32;96816.28;;;14.63;84.71
80174;BME280;69497;41.708;44.804;2023-04-24T03:54:15;96803.38;;;14.58;85.35
80174;BME280;69497;41.708;44.804;2023-04-24T03:56:41;96806.88;;;14.65;85.15
80174;BME280;69497;41.708;44.804;2023-04-24T03:59:07;96795.75;;;14.67;85.01
80174;BME280;69497;41.708;44.804;2023-04-24T04:01:36;96801.63;;;14.64;85.82
80174;BME280;69497;41.708;44.804;2023-04-24T04:04:11;96795.44;;;14.57;84.62
80174;BME280;69497;41.708;44.804;2023-04-24T04:06:37;96790.75;;;14.64;84.54
80174;BME280;69497;41.708;44.804;2023-04-24T04:09:04;96777.00;;;14.59;85.35
80174;BME280;69497;41.708;44.804;2023-04-24T04:11:30;96779.72;;;14.59;85.58
80174;BME280;69497;41.708;44.804;2023-04-24T04:13:56;96745.72;;;14.50;85.48
80174;BME280;69497;41.708;44.804;2023-04-24T04:16:22;96730.81;;;14.52;85.61
80174;BME280;69497;41.708;44.804;2023-04-24T04:18:56;96701.44;;;14.43;86.09
80174;BME280;69497;41.708;44.804;2023-04-24T04:21:22;96708.31;;;14.45;86.53
80174;BME280;69497;41.708;44.804;2023-04-24T04:23:53;96705.22;;;14.42;86.50
80174;BME280;69497;41.708;44.804;2023-04-24T04:26:26;96716.69;;;14.44;85.48
80174;BME280;69497;41.708;44.804;2023-04-24T04:29:00;96723.81;;;14.27;85.61
80174;BME280;69497;41.708;44.804;2023-04-24T04:31:27;96740.53;;;14.24;86.55
80174;BME280;69497;41.708;44.804;2023-04-24T04:33:55;96745.53;;;14.08;86.11
80174;BME280;69497;41.708;44.804;2023-04-24T04:36:21;96759.56;;;14.24;85.70
80174;BME280;69497;41.708;44.804;2023-04-24T04:38:55;96754.31;;;14.29;84.42
80174;BME280;69497;41.708;44.804;2023-04-24T04:41:45;96756.97;;;14.35;83.37
80174;BME280;69497;41.708;44.804;2023-04-24T04:44:16;96752.53;;;14.41;83.61
80174;BME280;69497;41.708;44.804;2023-04-24T04:46:42;96754.16;;;14.42;82.59
80174;BME280;69497;41.708;44.804;2023-04-24T04:49:32;96750.09;;;14.51;82.44
80174;BME280;69497;41.708;44.804;2023-04-24T04:51:58;96758.63;;;14.54;82.70
80174;BME280;69497;41.708;44.804;2023-04-24T04:54:26;96754.25;;;14.71;82.28
80174;BME280;69497;41.708;44.804;2023-04-24T04:56:53;96758.66;;;14.72;81.05
80174;BME280;69497;41.708;44.804;2023-04-24T04:59:19;96750.31;;;14.85;79.47
80174;BME280;69497;41.708;44.804;2023-04-24T05:01:47;96754.88;;;15.03;79.46
80174;BME280;69497;41.708;44.804;2023-04-24T05:04:15;96753.91;;;15.27;78.02
80174;BME280;69497;41.708;44.804;2023-04-24T05:06:41;96750.69;;;15.48;77.24
80174;BME280;69497;41.708;44.804;2023-04-24T05:09:07;96755.22;;;15.66;76.28
80174;BME280;69497;41.708;44.804;2023-04-24T05:11:41;96748.25;;;16.04;75.05
80174;BME280;69497;41.708;44.804;2023-04-24T05:14:07;96754.44;;;16.34;74.77
80174;BME280;69497;41.708;44.804;2023-04-24T05:16:38;96748.97;;;16.58;71.78
80174;BME280;69497;41.708;44.804;2023-04-24T05:19:06;96754.28;;;16.76;70.30
80174;BME280;69497;41.708;44.804;2023-04-24T05:21:39;96760.84;;;17.03;71.43
80174;BME280;69497;41.708;44.804;2023-04-24T05:24:05;96756.75;;;17.17;69.69
80174;BME280;69497;41.708;44.804;2023-04-24T05:26:43;96766.38;;;17.19;68.91
80174;BME280;69497;41.708;44.804;2023-04-24T05:29:11;96764.78;;;17.07;69.15
80174;BME280;69497;41.708;44.804;2023-04-24T05:31:37;96765.44;;;16.74;68.72
80174;BME280;69497;41.708;44.804;2023-04-24T05:34:05;96767.56;;;16.84;67.51
80174;BME280;69497;41.708;44.804;2023-04-24T05:36:31;96765.16;;;16.87;69.28
80174;BME280;69497;41.708;44.804;2023-04-24T05:38:58;96770.66;;;16.76;69.94
80174;BME280;69497;41.708;44.804;2023-04-24T05:41:25;96766.16;;;16.70;70.39
80174;BME280;69497;41.708;44.804;2023-04-24T05:43:51;96787.53;;;16.73;69.80
80174;BME280;69497;41.708;44.804;2023-04-24T05:46:17;96784.03;;;17.00;69.62
80174;BME280;69497;41.708;44.804;2023-04-24T05:48:44;96784.94;;;17.06;67.12
80174;BME280;69497;41.708;44.804;2023-04-24T05:51:10;96783.44;;;17.26;67.68
80174;BME280;69497;41.708;44.804;2023-04-24T05:53:36;96777.50;;;17.57;68.60
80174;BME280;69497;41.708;44.804;2023-04-24T05:56:02;96789.81;;;17.72;65.78
80174;BME280;69497;41.708;44.804;2023-04-24T05:58:29;96796.28;;;17.82;65.72
80174;BME280;69497;41.708;44.804;2023-04-24T06:00:56;96792.03;;;17.91;64.62
80174;BME280;69497;41.708;44.804;2023-04-24T06:03:24;96789.75;;;18.00;63.97
80174;BME280;69497;41.708;44.804;2023-04-24T06:05:51;96788.34;;;18.30;63.19
80174;BME280;69497;41.708;44.804;2023-04-24T06:08:17;96783.53;;;18.21;62.38
80174;BME280;69497;41.708;44.804;2023-04-24T06:10:44;96786.16;;;18.32;62.36
80174;BME280;69497;41.708;44.804;2023-04-24T06:13:11;96789.25;;;18.52;61.42
80174;BME280;69497;41.708;44.804;2023-04-24T06:15:42;96793.06;;;19.11;62.29
80174;BME280;69497;41.708;44.804;2023-04-24T06:18:14;96787.28;;;19.08;59.75
80174;BME280;69497;41.708;44.804;2023-04-24T06:20:41;96794.09;;;19.75;59.43
80174;BME280;69497;41.708;44.804;2023-04-24T06:23:09;96781.84;;;19.82;58.45
80174;BME280;69497;41.708;44.804;2023-04-24T06:25:35;96792.94;;;19.98;57.18
80174;BME280;69497;41.708;44.804;2023-04-24T06:28:01;96788.81;;;19.95;55.77
80174;BME280;69497;41.708;44.804;2023-04-24T06:30:29;96781.16;;;20.65;56.20
80174;BME280;69497;41.708;44.804;2023-04-24T06:32:55;96774.56;;;21.08;52.93
80174;BME280;69497;41.708;44.804;2023-04-24T06:35:21;96784.31;;;21.36;53.90
80174;BME280;69497;41.708;44.804;2023-04-24T06:37:47;96767.41;;;21.07;52.48
80174;BME280;69497;41.708;44.804;2023-04-24T06:40:13;96775.69;;;21.22;52.57
80174;BME280;69497;41.708;44.804;2023-04-24T06:42:40;96785.25;;;20.99;51.93
80174;BME280;69497;41.708;44.804;2023-04-24T06:45:08;96775.50;;;20.87;52.45
80174;BME280;69497;41.708;44.804;2023-04-24T06:47:34;96789.09;;;21.03;53.42
80174;BME280;69497;41.708;44.804;2023-04-24T06:50:00;96776.44;;;21.02;52.89
80174;BME280;69497;41.708;44.804;2023-04-24T06:52:26;96781.34;;;20.95;52.86
80174;BME280;69497;41.708;44.804;2023-04-24T06:54:52;96767.78;;;20.79;52.73
80174;BME280;69497;41.708;44.804;2023-04-24T06:57:19;96780.41;;;20.80;54.38
80174;BME280;69497;41.708;44.804;2023-04-24T06:59:45;96766.44;;;20.86;53.82
80174;BME280;69497;41.708;44.804;2023-04-24T07:02:11;96771.63;;;20.83;51.67
80174;BME280;69497;41.708;44.804;2023-04-24T07:04:37;96763.63;;;21.23;52.50
80174;BME280;69497;41.708;44.804;2023-04-24T07:07:03;96754.69;;;21.73;52.55
80174;BME280;69497;41.708;44.804;2023-04-24T07:09:30;96761.91;;;22.09;50.19
80174;BME280;69497;41.708;44.804;2023-04-24T07:11:56;96763.28;;;21.96;49.35
80174;BME280;69497;41.708;44.804;2023-04-24T07:14:22;96764.09;;;21.82;50.43
80174;BME280;69497;41.708;44.804;2023-04-24T07:16:48;96760.25;;;22.18;50.02
80174;BME280;69497;41.708;44.804;2023-04-24T07:19:14;96752.53;;;22.10;49.27
80174;BME280;69497;41.708;44.804;2023-04-24T07:21:40;96754.19;;;22.21;49.78
80174;BME280;69497;41.708;44.804;2023-04-24T07:24:06;96762.47;;;22.11;49.87
80174;BME280;69497;41.708;44.804;2023-04-24T07:26:37;96760.66;;;21.40;50.68
80174;BME280;69497;41.708;44.804;2023-04-24T07:29:06;96750.91;;;21.12;51.67
80174;BME280;69497;41.708;44.804;2023-04-24T07:31:33;96753.22;;;20.78;51.82
80174;BME280;69497;41.708;44.804;2023-04-24T07:33:59;96747.41;;;20.70;52.48
80174;BME280;69497;41.708;44.804;2023-04-24T07:36:25;96746.25;;;21.13;52.05
80174;BME280;69497;41.708;44.804;2023-04-24T07:38:51;96748.50;;;21.31;52.27
80174;BME280;69497;41.708;44.804;2023-04-24T07:41:18;96751.84;;;21.43;50.56
80174;BME280;69497;41.708;44.804;2023-04-24T07:43:44;96753.50;;;21.39;51.11
80174;BME280;69497;41.708;44.804;2023-04-24T07:46:11;96747.00;;;20.98;51.53
80174;BME280;69497;41.708;44.804;2023-04-24T07:48:37;96747.72;;;20.37;53.36
80174;BME280;69497;41.708;44.804;2023-04-24T07:51:03;96749.03;;;20.24;54.21
80174;BME280;69497;41.708;44.804;2023-04-24T07:53:29;96744.13;;;20.00;56.18
80174;BME280;69497;41.708;44.804;2023-04-24T07:55:56;96744.44;;;19.76;57.27
80174;BME280;69497;41.708;44.804;2023-04-24T07:58:22;96747.09;;;19.66;57.66
80174;BME280;69497;41.708;44.804;2023-04-24T08:00:48;96749.19;;;19.54;57.44
80174;BME280;69497;41.708;44.804;2023-04-24T08:03:14;96741.63;;;19.40;57.06
80174;BME280;69497;41.708;44.804;2023-04-24T08:05:40;96729.94;;;19.49;57.03
80174;BME280;69497;41.708;44.804;2023-04-24T08:08:07;96722.41;;;19.93;56.55
80174;BME280;69497;41.708;44.804;2023-04-24T08:10:33;96715.94;;;20.14;55.29
80174;BME280;69497;41.708;44.804;2023-04-24T08:12:59;96728.59;;;20.52;53.90
80174;BME280;69497;41.708;44.804;2023-04-24T08:15:27;96719.69;;;20.76;54.08
80174;BME280;69497;41.708;44.804;2023-04-24T08:17:53;96713.50;;;20.49;53.17
80174;BME280;69497;41.708;44.804;2023-04-24T08:20:19;96713.22;;;20.51;53.02
80174;BME280;69497;41.708;44.804;2023-04-24T08:22:45;96711.75;;;20.38;53.19
80174;BME280;69497;41.708;44.804;2023-04-24T08:25:12;96708.91;;;20.23;53.31
80174;BME280;69497;41.708;44.804;2023-04-24T08:27:38;96698.53;;;19.99;53.78
80174;BME280;69497;41.708;44.804;2023-04-24T08:30:05;96706.25;;;20.33;54.95
80174;BME280;69497;41.708;44.804;2023-04-24T08:32:32;96696.41;;;20.37;53.23
80174;BME280;69497;41.708;44.804;2023-04-24T08:34:59;96692.22;;;20.30;53.22
80174;BME280;69497;41.708;44.804;2023-04-24T08:37:26;96685.75;;;20.14;53.87
80174;BME280;69497;41.708;44.804;2023-04-24T08:39:53;96679.34;;;20.35;54.42
80174;BME280;69497;41.708;44.804;2023-04-24T08:42:20;96681.28;;;20.40;53.54
80174;BME280;69497;41.708;44.804;2023-04-24T08:44:47;96680.47;;;20.39;53.74
80174;BME280;69497;41.708;44.804;2023-04-24T08:47:15;96669.75;;;20.33;53.16
80174;BME280;69497;41.708;44.804;2023-04-24T08:49:41;96672.78;;;20.36;54.71
80174;BME280;69497;41.708;44.804;2023-04-24T08:52:08;96660.41;;;19.97;54.48
80174;BME280;69497;41.708;44.804;2023-04-24T08:54:35;96669.13;;;19.89;55.83
80174;BME280;69497;41.708;44.804;2023-04-24T08:57:07;96661.19;;;19.92;56.46
80174;BME280;69497;41.708;44.804;2023-04-24T08:59:33;96664.13;;;19.81;55.78
80174;BME280;69497;41.708;44.804;2023-04-24T09:02:02;96656.72;;;19.81;55.57
80174;BME280;69497;41.708;44.804;2023-04-24T09:04:29;96655.88;;;19.76;55.34
80174;BME280;69497;41.708;44.804;2023-04-24T09:06:57;96652.47;;;19.64;57.68
80174;BME280;69497;41.708;44.804;2023-04-24T09:09:24;96647.97;;;19.53;57.70
80174;BME280;69497;41.708;44.804;2023-04-24T09:11:51;96648.34;;;19.30;58.60
80174;BME280;69497;41.708;44.804;2023-04-24T09:14:20;96639.41;;;19.18;58.53
80174;BME280;69497;41.708;44.804;2023-04-24T09:16:48;96632.13;;;19.02;59.38
80174;BME280;69497;41.708;44.804;2023-04-24T09:19:15;96629.47;;;19.12;60.83
80174;BME280;69497;41.708;44.804;2023-04-24T09:21:45;96630.97;;;19.24;57.82
80174;BME280;69497;41.708;44.804;2023-04-24T09:24:20;96636.84;;;19.33;58.20
80174;BME280;69497;41.708;44.804;2023-04-24T09:26:56;96640.59;;;19.53;58.53
80174;BME280;69497;41.708;44.804;2023-04-24T09:29:27;96642.38;;;19.38;57.79
80174;BME280;69497;41.708;44.804;2023-04-24T09:31:53;96631.53;;;19.53;58.09
80174;BME280;69497;41.708;44.804;2023-04-24T09:34:24;96638.00;;;19.73;63.50
80174;BME280;69497;41.708;44.804;2023-04-24T09:36:51;96627.25;;;19.67;61.25
80174;BME280;69497;41.708;44.804;2023-04-24T09:39:18;96623.78;;;19.81;63.86
80174;BME280;69497;41.708;44.804;2023-04-24T09:41:49;96602.25;;;20.00;60.85
80174;BME280;69497;41.708;44.804;2023-04-24T09:44:18;96604.59;;;20.18;61.62
80174;BME280;69497;41.708;44.804;2023-04-24T09:46:54;96606.06;;;20.41;58.28
80174;BME280;69497;41.708;44.804;2023-04-24T09:49:28;96603.00;;;20.32;55.69
80174;BME280;69497;41.708;44.804;2023-04-24T09:52:04;96601.97;;;20.48;54.61
80174;BME280;69497;41.708;44.804;2023-04-24T09:54:30;96596.84;;;20.72;53.98
80174;BME280;69497;41.708;44.804;2023-04-24T09:56:57;96602.09;;;20.78;54.39
80174;BME280;69497;41.708;44.804;2023-04-24T09:59:22;96602.56;;;20.60;53.47
80174;BME280;69497;41.708;44.804;2023-04-24T10:01:50;96606.38;;;20.49;53.89
80174;BME280;69497;41.708;44.804;2023-04-24T10:04:24;96613.25;;;20.52;55.44
80174;BME280;69497;41.708;44.804;2023-04-24T10:06:52;96598.88;;;20.30;55.53
80174;BME280;69497;41.708;44.804;2023-04-24T10:09:22;96592.50;;;20.19;54.62
80174;BME280;69497;41.708;44.804;2023-04-24T10:11:50;96593.72;;;20.43;54.98
80174;BME280;69497;41.708;44.804;2023-04-24T10:14:19;96575.69;;;20.72;54.63
80174;BME280;69497;41.708;44.804;2023-04-24T10:16:46;96575.97;;;20.81;53.42
80174;BME280;69497;41.708;44.804;2023-04-24T10:19:13;96581.19;;;20.72;52.99
80174;BME280;69497;41.708;44.804;2023-04-24T10:21:41;96577.88;;;20.65;53.36
80174;BME280;69497;41.708;44.804;2023-04-24T10:24:14;96576.47;;;20.58;52.47
80174;BME280;69497;41.708;44.804;2023-04-24T10:26:42;96581.38;;;20.46;53.05
80174;BME280;69497;41.708;44.804;2023-04-24T10:29:10;96589.25;;;20.22;53.55
80174;BME280;69497;41.708;44.804;2023-04-24T10:31:38;96583.47;;;20.24;53.97
80174;BME280;69497;41.708;44.804;2023-04-24T10:34:09;96580.38;;;20.15;55.17
80174;BME280;69497;41.708;44.804;2023-04-24T10:36:39;96583.09;;;20.05;54.24
80174;BME280;69497;41.708;44.804;2023-04-24T10:39:10;96580.78;;;19.92;55.32
80174;BME280;69497;41.708;44.804;2023-04-24T10:41:38;96573.59;;;19.81;55.71
80174;BME280;69497;41.708;44.804;2023-04-24T10:44:14;96573.91;;;19.84;55.83
80174;BME280;69497;41.708;44.804;2023-04-24T10:46:45;96574.91;;;19.73;56.42
80174;BME280;69497;41.708;44.804;2023-04-24T10:49:11;96578.75;;;19.72;55.60
80174;BME280;69497;41.708;44.804;2023-04-24T10:51:53;96583.41;;;19.72;55.68
80174;BME280;69497;41.708;44.804;2023-04-24T10:54:25;96568.53;;;19.63;56.18
80174;BME280;69497;41.708;44.804;2023-04-24T10:56:52;96576.53;;;19.69;55.95
80174;BME280;69497;41.708;44.804;2023-04-24T10:59:26;96572.28;;;19.47;54.99
80174;BME280;69497;41.708;44.804;2023-04-24T11:01:54;96568.94;;;19.40;55.80
80174;BME280;69497;41.708;44.804;2023-04-24T11:04:30;96565.13;;;19.46;56.96
80174;BME280;69497;41.708;44.804;2023-04-24T11:06:57;96555.78;;;19.42;57.47
80174;BME280;69497;41.708;44.804;2023-04-24T11:09:27;96563.50;;;19.50;60.52
80174;BME280;69497;41.708;44.804;2023-04-24T11:12:23;96566.56;;;19.27;59.98
80174;BME280;69497;41.708;44.804;2023-04-24T11:17:37;96562.88;;;19.11;62.40
80174;BME280;69497;41.708;44.804;2023-04-24T11:20:07;96558.44;;;19.05;62.64
80174;BME280;69497;41.708;44.804;2023-04-24T11:22:39;96555.34;;;18.97;66.32
80174;BME280;69497;41.708;44.804;2023-04-24T11:25:06;96557.53;;;18.95;66.56
80174;BME280;69497;41.708;44.804;2023-04-24T11:27:40;96548.53;;;18.72;65.42
80174;BME280;69497;41.708;44.804;2023-04-24T11:30:07;96545.00;;;18.77;65.86
80174;BME280;69497;41.708;44.804;2023-04-24T11:37:38;96536.03;;;18.55;69.77
80174;BME280;69497;41.708;44.804;2023-04-24T11:40:06;96527.88;;;18.38;69.76
80174;BME280;69497;41.708;44.804;2023-04-24T11:42:37;96525.16;;;18.38;70.51
80174;BME280;69497;41.708;44.804;2023-04-24T11:47:49;96520.31;;;18.24;70.66
80174;BME280;69497;41.708;44.804;2023-04-24T11:50:18;96510.66;;;18.16;73.63
80174;BME280;69497;41.708;44.804;2023-04-24T11:52:47;96519.41;;;18.13;73.14
80174;BME280;69497;41.708;44.804;2023-04-24T11:57:42;96518.75;;;18.06;71.68
80174;BME280;69497;41.708;44.804;2023-04-24T12:00:16;96511.03;;;18.03;71.80
80174;BME280;69497;41.708;44.804;2023-04-24T12:02:42;96517.66;;;18.07;71.14
80174;BME280;69497;41.708;44.804;2023-04-24T12:05:08;96516.81;;;18.07;71.11
80174;BME280;69497;41.708;44.804;2023-04-24T12:07:41;96528.03;;;18.05;72.57
80174;BME280;69497;41.708;44.804;2023-04-24T12:10:10;96531.81;;;17.99;73.11
80174;BME280;69497;41.708;44.804;2023-04-24T12:12:36;96527.66;;;17.97;73.69
80174;BME280;69497;41.708;44.804;2023-04-24T12:15:07;96526.53;;;17.93;71.85
80174;BME280;69497;41.708;44.804;2023-04-24T12:17:35;96527.84;;;17.90;71.47
80174;BME280;69497;41.708;44.804;2023-04-24T12:20:04;96527.53;;;17.87;69.96
80174;BME280;69497;41.708;44.804;2023-04-24T12:22:50;96538.78;;;17.90;70.98
80174;BME280;69497;41.708;44.804;2023-04-24T12:25:18;96543.88;;;17.82;71.27
80174;BME280;69497;41.708;44.804;2023-04-24T12:27:46;96539.16;;;17.77;71.88
80174;BME280;69497;41.708;44.804;2023-04-24T12:30:14;96538.00;;;17.73;71.70
80174;BME280;69497;41.708;44.804;2023-04-24T12:32:46;96541.31;;;17.75;72.05
80174;BME280;69497;41.708;44.804;2023-04-24T12:35:13;96539.56;;;17.69;72.44
80174;BME280;69497;41.708;44.804;2023-04-24T12:37:42;96556.44;;;17.83;71.25
80174;BME280;69497;41.708;44.804;2023-04-24T12:40:12;96554.28;;;17.63;73.69
80174;BME280;69497;41.708;44.804;2023-04-24T12:42:46;96561.31;;;17.59;74.41
80174;BME280;69497;41.708;44.804;2023-04-24T12:45:14;96571.66;;;17.57;72.17
80174;BME280;69497;41.708;44.804;2023-04-24T12:47:41;96569.34;;;17.49;73.49
80174;BME280;69497;41.708;44.804;2023-04-24T12:50:08;96579.78;;;17.52;74.00
80174;BME280;69497;41.708;44.804;2023-04-24T12:52:35;96573.63;;;17.45;74.75
80174;BME280;69497;41.708;44.804;2023-04-24T12:55:01;96573.63;;;17.45;74.79
80174;BME280;69497;41.708;44.804;2023-04-24T12:57:29;96571.97;;;17.44;74.83
80174;BME280;69497;41.708;44.804;2023-04-24T12:59:57;96567.69;;;17.31;73.26
80174;BME280;69497;41.708;44.804;2023-04-24T13:02:25;96577.28;;;17.34;73.46
80174;BME280;69497;41.708;44.804;2023-04-24T13:04:52;96576.56;;;17.22;73.73
80174;BME280;69497;41.708;44.804;2023-04-24T13:07:18;96573.16;;;17.15;74.62